sensor_id;sensor_type;location;lat;lon;timestamp;P1;durP1;ratioP1;P2;durP2;ratioP2
3249;SDS011;1637;42.020;23.992;2023-05-14T00:00:35;20.27;;;11.80;;
3249;SDS011;1637;42.020;23.992;2023-05-14T00:03:02;19.50;;;10.43;;
3249;SDS011;1637;42.020;23.992;2023-05-14T00:05:29;16.13;;;10.10;;
3249;SDS011;1637;42.020;23.992;2023-05-14T00:07:56;14.70;;;10.20;;
3249;SDS011;1637;42.020;23.992;2023-05-14T00:10:25;12.00;;;8.37;;
3249;SDS011;1637;42.020;23.992;2023-05-14T00:12:52;11.80;;;8.30;;
3249;SDS011;1637;42.020;23.992;2023-05-14T00:15:19;10.77;;;8.10;;
3249;SDS011;1637;42.020;23.992;2023-05-14T00:17:46;11.30;;;7.63;;
3249;SDS011;1637;42.020;23.992;2023-05-14T00:20:13;15.83;;;8.20;;
3249;SDS011;1637;42.020;23.992;2023-05-14T00:22:39;10.23;;;7.27;;
3249;SDS011;1637;42.020;23.992;2023-05-14T00:25:07;8.20;;;6.33;;
3249;SDS011;1637;42.020;23.992;2023-05-14T00:27:35;9.60;;;6.50;;
3249;SDS011;1637;42.020;23.992;2023-05-14T00:30:03;7.87;;;6.30;;
3249;SDS011;1637;42.020;23.992;2023-05-14T00:32:31;10.80;;;5.70;;
3249;SDS011;1637;42.020;23.992;2023-05-14T00:34:57;8.70;;;6.93;;
3249;SDS011;1637;42.020;23.992;2023-05-14T00:37:24;11.10;;;6.13;;
3249;SDS011;1637;42.020;23.992;2023-05-14T00:39:51;11.90;;;7.27;;
3249;SDS011;1637;42.020;23.992;2023-05-14T00:42:18;9.57;;;6.73;;
3249;SDS011;1637;42.020;23.992;2023-05-14T00:44:46;12.13;;;6.77;;
3249;SDS011;1637;42.020;23.992;2023-05-14T00:47:13;9.70;;;6.93;;
3249;SDS011;1637;42.020;23.992;2023-05-14T00:49:40;10.77;;;7.60;;
3249;SDS011;1637;42.020;23.992;2023-05-14T00:52:07;16.10;;;10.00;;
3249;SDS011;1637;42.020;23.992;2023-05-14T00:54:36;18.80;;;10.87;;
3249;SDS011;1637;42.020;23.992;2023-05-14T00:57:03;20.00;;;9.20;;
3249;SDS011;1637;42.020;23.992;2023-05-14T00:59:31;20.10;;;10.13;;
3249;SDS011;1637;42.020;23.992;2023-05-14T01:01:59;12.20;;;7.00;;
3249;SDS011;1637;42.020;23.992;2023-05-14T01:04:27;15.20;;;7.13;;
3249;SDS011;1637;42.020;23.992;2023-05-14T01:06:58;8.70;;;6.30;;
3249;SDS011;1637;42.020;23.992;2023-05-14T01:09:35;15.07;;;7.87;;
3249;SDS011;1637;42.020;23.992;2023-05-14T01:12:10;10.00;;;7.53;;
3249;SDS011;1637;42.020;23.992;2023-05-14T01:14:44;16.07;;;9.20;;
3249;SDS011;1637;42.020;23.992;2023-05-14T01:17:19;10.33;;;8.77;;
3249;SDS011;1637;42.020;23.992;2023-05-14T01:19:48;14.03;;;8.90;;
3249;SDS011;1637;42.020;23.992;2023-05-14T01:22:18;11.37;;;8.90;;
3249;SDS011;1637;42.020;23.992;2023-05-14T01:24:44;9.83;;;7.73;;
3249;SDS011;1637;42.020;23.992;2023-05-14T01:27:12;11.27;;;8.20;;
3249;SDS011;1637;42.020;23.992;2023-05-14T01:29:44;18.20;;;8.80;;
3249;SDS011;1637;42.020;23.992;2023-05-14T01:32:15;11.60;;;8.50;;
3249;SDS011;1637;42.020;23.992;2023-05-14T01:34:44;12.70;;;7.20;;
3249;SDS011;1637;42.020;23.992;2023-05-14T01:37:13;8.50;;;6.80;;
3249;SDS011;1637;42.020;23.992;2023-05-14T01:39:43;12.47;;;6.47;;
3249;SDS011;1637;42.020;23.992;2023-05-14T01:42:11;8.00;;;5.80;;
3249;SDS011;1637;42.020;23.992;2023-05-14T01:44:38;11.90;;;6.03;;
3249;SDS011;1637;42.020;23.992;2023-05-14T01:47:05;6.50;;;5.70;;
3249;SDS011;1637;42.020;23.992;2023-05-14T01:49:32;8.00;;;5.70;;
3249;SDS011;1637;42.020;23.992;2023-05-14T01:51:59;10.70;;;5.87;;
3249;SDS011;1637;42.020;23.992;2023-05-14T01:54:25;10.80;;;5.30;;
3249;SDS011;1637;42.020;23.992;2023-05-14T01:56:54;8.63;;;6.20;;
3249;SDS011;1637;42.020;23.992;2023-05-14T01:59:20;9.53;;;6.30;;
3249;SDS011;1637;42.020;23.992;2023-05-14T02:01:47;8.03;;;6.00;;
3249;SDS011;1637;42.020;23.992;2023-05-14T02:04:14;8.47;;;6.77;;
3249;SDS011;1637;42.020;23.992;2023-05-14T02:06:41;9.70;;;5.47;;
3249;SDS011;1637;42.020;23.992;2023-05-14T02:09:07;11.77;;;6.50;;
3249;SDS011;1637;42.020;23.992;2023-05-14T02:11:34;7.90;;;6.00;;
3249;SDS011;1637;42.020;23.992;2023-05-14T02:14:02;7.10;;;5.67;;
3249;SDS011;1637;42.020;23.992;2023-05-14T02:16:29;7.07;;;5.87;;
3249;SDS011;1637;42.020;23.992;2023-05-14T02:18:56;6.17;;;4.87;;
3249;SDS011;1637;42.020;23.992;2023-05-14T02:21:23;12.73;;;5.87;;
3249;SDS011;1637;42.020;23.992;2023-05-14T02:23:50;11.50;;;5.80;;
3249;SDS011;1637;42.020;23.992;2023-05-14T02:26:16;8.20;;;5.87;;
3249;SDS011;1637;42.020;23.992;2023-05-14T02:28:43;9.70;;;6.47;;
3249;SDS011;1637;42.020;23.992;2023-05-14T02:31:12;8.17;;;5.27;;
3249;SDS011;1637;42.020;23.992;2023-05-14T02:33:39;7.23;;;5.63;;
3249;SDS011;1637;42.020;23.992;2023-05-14T02:36:06;7.13;;;5.57;;
3249;SDS011;1637;42.020;23.992;2023-05-14T02:38:33;7.60;;;6.20;;
3249;SDS011;1637;42.020;23.992;2023-05-14T02:40:59;8.37;;;6.40;;
3249;SDS011;1637;42.020;23.992;2023-05-14T02:43:26;6.83;;;5.93;;
3249;SDS011;1637;42.020;23.992;2023-05-14T02:45:53;8.20;;;6.20;;
3249;SDS011;1637;42.020;23.992;2023-05-14T02:48:21;9.70;;;6.40;;
3249;SDS011;1637;42.020;23.992;2023-05-14T02:50:48;7.90;;;5.47;;
3249;SDS011;1637;42.020;23.992;2023-05-14T02:53:16;7.10;;;6.00;;
3249;SDS011;1637;42.020;23.992;2023-05-14T02:55:42;6.73;;;5.40;;
3249;SDS011;1637;42.020;23.992;2023-05-14T02:58:09;9.30;;;6.20;;
3249;SDS011;1637;42.020;23.992;2023-05-14T03:00:36;11.17;;;5.77;;
3249;SDS011;1637;42.020;23.992;2023-05-14T03:03:03;10.10;;;6.43;;
3249;SDS011;1637;42.020;23.992;2023-05-14T03:05:31;6.93;;;6.23;;
3249;SDS011;1637;42.020;23.992;2023-05-14T03:07:58;17.50;;;8.50;;
3249;SDS011;1637;42.020;23.992;2023-05-14T03:10:25;10.07;;;6.97;;
3249;SDS011;1637;42.020;23.992;2023-05-14T03:12:52;10.67;;;7.03;;
3249;SDS011;1637;42.020;23.992;2023-05-14T03:15:19;12.53;;;7.27;;
3249;SDS011;1637;42.020;23.992;2023-05-14T03:17:46;13.40;;;7.27;;
3249;SDS011;1637;42.020;23.992;2023-05-14T03:20:13;12.00;;;7.57;;
3249;SDS011;1637;42.020;23.992;2023-05-14T03:22:41;10.87;;;7.23;;
3249;SDS011;1637;42.020;23.992;2023-05-14T03:25:08;9.60;;;7.53;;
3249;SDS011;1637;42.020;23.992;2023-05-14T03:27:35;16.13;;;6.97;;
3249;SDS011;1637;42.020;23.992;2023-05-14T03:30:02;16.30;;;10.40;;
3249;SDS011;1637;42.020;23.992;2023-05-14T03:32:29;16.90;;;9.90;;
3249;SDS011;1637;42.020;23.992;2023-05-14T03:34:56;17.57;;;10.13;;
3249;SDS011;1637;42.020;23.992;2023-05-14T03:37:23;15.03;;;8.40;;
3249;SDS011;1637;42.020;23.992;2023-05-14T03:39:51;10.63;;;8.20;;
3249;SDS011;1637;42.020;23.992;2023-05-14T03:42:18;10.73;;;7.60;;
3249;SDS011;1637;42.020;23.992;2023-05-14T03:44:45;13.40;;;10.80;;
3249;SDS011;1637;42.020;23.992;2023-05-14T03:47:12;17.20;;;10.60;;
3249;SDS011;1637;42.020;23.992;2023-05-14T03:49:38;12.57;;;8.87;;
3249;SDS011;1637;42.020;23.992;2023-05-14T03:52:05;17.83;;;10.03;;
3249;SDS011;1637;42.020;23.992;2023-05-14T03:54:32;19.20;;;12.30;;
3249;SDS011;1637;42.020;23.992;2023-05-14T03:57:00;13.97;;;10.80;;
3249;SDS011;1637;42.020;23.992;2023-05-14T03:59:27;17.80;;;10.33;;
3249;SDS011;1637;42.020;23.992;2023-05-14T04:01:54;19.67;;;12.70;;
3249;SDS011;1637;42.020;23.992;2023-05-14T04:04:20;23.93;;;17.13;;
3249;SDS011;1637;42.020;23.992;2023-05-14T04:06:47;17.67;;;11.23;;
3249;SDS011;1637;42.020;23.992;2023-05-14T04:09:14;15.43;;;10.53;;
3249;SDS011;1637;42.020;23.992;2023-05-14T04:11:41;14.93;;;9.17;;
3249;SDS011;1637;42.020;23.992;2023-05-14T04:14:09;14.47;;;8.83;;
3249;SDS011;1637;42.020;23.992;2023-05-14T04:16:36;12.33;;;10.07;;
3249;SDS011;1637;42.020;23.992;2023-05-14T04:19:03;17.37;;;11.90;;
3249;SDS011;1637;42.020;23.992;2023-05-14T04:21:30;16.50;;;12.20;;
3249;SDS011;1637;42.020;23.992;2023-05-14T04:23:56;20.47;;;12.60;;
3249;SDS011;1637;42.020;23.992;2023-05-14T04:26:23;16.30;;;12.20;;
3249;SDS011;1637;42.020;23.992;2023-05-14T04:28:50;19.00;;;13.23;;
3249;SDS011;1637;42.020;23.992;2023-05-14T04:31:19;19.87;;;13.17;;
3249;SDS011;1637;42.020;23.992;2023-05-14T04:33:45;20.23;;;12.70;;
3249;SDS011;1637;42.020;23.992;2023-05-14T04:36:12;18.27;;;13.10;;
3249;SDS011;1637;42.020;23.992;2023-05-14T04:38:40;18.10;;;13.30;;
3249;SDS011;1637;42.020;23.992;2023-05-14T04:41:06;19.40;;;13.23;;
3249;SDS011;1637;42.020;23.992;2023-05-14T04:43:33;21.73;;;15.60;;
3249;SDS011;1637;42.020;23.992;2023-05-14T04:46:00;42.27;;;28.00;;
3249;SDS011;1637;42.020;23.992;2023-05-14T04:48:28;48.60;;;24.50;;
3249;SDS011;1637;42.020;23.992;2023-05-14T04:50:55;31.93;;;18.33;;
3249;SDS011;1637;42.020;23.992;2023-05-14T04:53:22;30.57;;;17.57;;
3249;SDS011;1637;42.020;23.992;2023-05-14T04:55:49;21.43;;;14.47;;
3249;SDS011;1637;42.020;23.992;2023-05-14T04:58:16;21.27;;;12.90;;
3249;SDS011;1637;42.020;23.992;2023-05-14T05:00:43;28.00;;;14.40;;
3249;SDS011;1637;42.020;23.992;2023-05-14T05:03:09;29.67;;;17.33;;
3249;SDS011;1637;42.020;23.992;2023-05-14T05:05:38;30.17;;;18.60;;
3249;SDS011;1637;42.020;23.992;2023-05-14T05:08:04;26.47;;;18.40;;
3249;SDS011;1637;42.020;23.992;2023-05-14T05:10:31;31.37;;;20.80;;
3249;SDS011;1637;42.020;23.992;2023-05-14T05:12:58;25.33;;;16.13;;
3249;SDS011;1637;42.020;23.992;2023-05-14T05:15:25;22.43;;;15.07;;
3249;SDS011;1637;42.020;23.992;2023-05-14T05:17:52;22.60;;;12.98;;
3249;SDS011;1637;42.020;23.992;2023-05-14T05:20:19;17.93;;;12.83;;
3249;SDS011;1637;42.020;23.992;2023-05-14T05:22:47;19.93;;;12.83;;
3249;SDS011;1637;42.020;23.992;2023-05-14T05:25:14;19.50;;;12.30;;
3249;SDS011;1637;42.020;23.992;2023-05-14T05:27:41;16.20;;;10.70;;
3249;SDS011;1637;42.020;23.992;2023-05-14T05:30:08;19.10;;;12.23;;
3249;SDS011;1637;42.020;23.992;2023-05-14T05:32:35;17.70;;;10.80;;
3249;SDS011;1637;42.020;23.992;2023-05-14T05:35:03;18.50;;;10.27;;
3249;SDS011;1637;42.020;23.992;2023-05-14T05:37:30;19.13;;;11.00;;
3249;SDS011;1637;42.020;23.992;2023-05-14T05:39:58;13.07;;;9.17;;
3249;SDS011;1637;42.020;23.992;2023-05-14T05:42:25;19.03;;;10.50;;
3249;SDS011;1637;42.020;23.992;2023-05-14T05:44:52;15.30;;;10.40;;
3249;SDS011;1637;42.020;23.992;2023-05-14T05:47:19;19.40;;;9.50;;
3249;SDS011;1637;42.020;23.992;2023-05-14T05:49:45;16.00;;;10.03;;
3249;SDS011;1637;42.020;23.992;2023-05-14T05:52:12;17.47;;;11.00;;
3249;SDS011;1637;42.020;23.992;2023-05-14T05:54:39;15.83;;;10.87;;
3249;SDS011;1637;42.020;23.992;2023-05-14T05:57:07;14.60;;;11.40;;
3249;SDS011;1637;42.020;23.992;2023-05-14T05:59:34;16.33;;;11.27;;
3249;SDS011;1637;42.020;23.992;2023-05-14T06:02:01;16.00;;;11.27;;
3249;SDS011;1637;42.020;23.992;2023-05-14T06:04:28;18.53;;;12.30;;
3249;SDS011;1637;42.020;23.992;2023-05-14T06:06:54;16.97;;;12.43;;
3249;SDS011;1637;42.020;23.992;2023-05-14T06:09:21;21.40;;;12.70;;
3249;SDS011;1637;42.020;23.992;2023-05-14T06:11:48;21.80;;;13.93;;
3249;SDS011;1637;42.020;23.992;2023-05-14T06:14:16;20.90;;;13.97;;
3249;SDS011;1637;42.020;23.992;2023-05-14T06:16:43;21.90;;;15.17;;
3249;SDS011;1637;42.020;23.992;2023-05-14T06:19:10;22.60;;;15.80;;
3249;SDS011;1637;42.020;23.992;2023-05-14T06:21:37;29.97;;;19.37;;
3249;SDS011;1637;42.020;23.992;2023-05-14T06:24:04;36.07;;;24.13;;
3249;SDS011;1637;42.020;23.992;2023-05-14T06:26:31;21.63;;;15.73;;
3249;SDS011;1637;42.020;23.992;2023-05-14T06:28:58;15.27;;;12.00;;
3249;SDS011;1637;42.020;23.992;2023-05-14T06:31:26;20.47;;;14.07;;
3249;SDS011;1637;42.020;23.992;2023-05-14T06:33:53;16.40;;;11.60;;
3249;SDS011;1637;42.020;23.992;2023-05-14T06:36:20;15.50;;;10.60;;
3249;SDS011;1637;42.020;23.992;2023-05-14T06:38:46;18.63;;;12.70;;
3249;SDS011;1637;42.020;23.992;2023-05-14T06:41:13;27.10;;;16.33;;
3249;SDS011;1637;42.020;23.992;2023-05-14T06:43:40;26.10;;;14.70;;
3249;SDS011;1637;42.020;23.992;2023-05-14T06:46:07;18.53;;;11.43;;
3249;SDS011;1637;42.020;23.992;2023-05-14T06:48:35;29.23;;;13.97;;
3249;SDS011;1637;42.020;23.992;2023-05-14T06:51:02;14.70;;;11.50;;
3249;SDS011;1637;42.020;23.992;2023-05-14T06:53:29;20.60;;;11.50;;
3249;SDS011;1637;42.020;23.992;2023-05-14T06:55:56;19.47;;;12.50;;
3249;SDS011;1637;42.020;23.992;2023-05-14T06:58:23;18.60;;;13.53;;
3249;SDS011;1637;42.020;23.992;2023-05-14T07:00:49;22.63;;;14.53;;
3249;SDS011;1637;42.020;23.992;2023-05-14T07:03:16;20.30;;;15.20;;
3249;SDS011;1637;42.020;23.992;2023-05-14T07:05:44;22.47;;;15.03;;
3249;SDS011;1637;42.020;23.992;2023-05-14T07:08:11;27.07;;;17.30;;
3249;SDS011;1637;42.020;23.992;2023-05-14T07:10:38;23.87;;;16.20;;
3249;SDS011;1637;42.020;23.992;2023-05-14T07:13:05;16.03;;;11.40;;
3249;SDS011;1637;42.020;23.992;2023-05-14T07:15:32;16.30;;;12.30;;
3249;SDS011;1637;42.020;23.992;2023-05-14T07:17:58;20.43;;;13.63;;
3249;SDS011;1637;42.020;23.992;2023-05-14T07:20:25;20.43;;;11.77;;
3249;SDS011;1637;42.020;23.992;2023-05-14T07:22:53;19.90;;;13.60;;
3249;SDS011;1637;42.020;23.992;2023-05-14T07:25:20;18.33;;;13.80;;
3249;SDS011;1637;42.020;23.992;2023-05-14T07:27:47;23.23;;;15.00;;
3249;SDS011;1637;42.020;23.992;2023-05-14T07:30:14;24.07;;;15.30;;
3249;SDS011;1637;42.020;23.992;2023-05-14T07:32:41;19.33;;;13.40;;
3249;SDS011;1637;42.020;23.992;2023-05-14T07:35:08;14.40;;;10.20;;
3249;SDS011;1637;42.020;23.992;2023-05-14T07:37:35;16.60;;;12.07;;
3249;SDS011;1637;42.020;23.992;2023-05-14T07:40:04;21.47;;;14.00;;
3249;SDS011;1637;42.020;23.992;2023-05-14T07:42:32;21.23;;;11.33;;
3249;SDS011;1637;42.020;23.992;2023-05-14T07:44:58;32.07;;;17.10;;
3249;SDS011;1637;42.020;23.992;2023-05-14T07:47:25;37.10;;;22.70;;
3249;SDS011;1637;42.020;23.992;2023-05-14T07:49:53;22.33;;;13.67;;
3249;SDS011;1637;42.020;23.992;2023-05-14T07:52:20;19.73;;;13.80;;
3249;SDS011;1637;42.020;23.992;2023-05-14T07:54:47;17.60;;;14.60;;
3249;SDS011;1637;42.020;23.992;2023-05-14T07:57:15;26.27;;;15.40;;
3249;SDS011;1637;42.020;23.992;2023-05-14T07:59:42;22.87;;;15.30;;
3249;SDS011;1637;42.020;23.992;2023-05-14T08:02:09;17.83;;;14.30;;
3249;SDS011;1637;42.020;23.992;2023-05-14T08:04:36;19.30;;;14.50;;
3249;SDS011;1637;42.020;23.992;2023-05-14T08:07:03;17.80;;;12.30;;
3249;SDS011;1637;42.020;23.992;2023-05-14T08:09:32;23.13;;;14.37;;
3249;SDS011;1637;42.020;23.992;2023-05-14T08:11:58;20.40;;;13.00;;
3249;SDS011;1637;42.020;23.992;2023-05-14T08:14:27;16.73;;;13.17;;
3249;SDS011;1637;42.020;23.992;2023-05-14T08:16:53;28.17;;;16.53;;
3249;SDS011;1637;42.020;23.992;2023-05-14T08:19:21;36.63;;;24.90;;
3249;SDS011;1637;42.020;23.992;2023-05-14T08:21:48;31.83;;;23.17;;
3249;SDS011;1637;42.020;23.992;2023-05-14T08:24:15;32.23;;;17.67;;
3249;SDS011;1637;42.020;23.992;2023-05-14T08:26:42;31.37;;;19.70;;
3249;SDS011;1637;42.020;23.992;2023-05-14T08:29:09;40.00;;;22.10;;
3249;SDS011;1637;42.020;23.992;2023-05-14T08:31:37;65.07;;;36.07;;
3249;SDS011;1637;42.020;23.992;2023-05-14T08:34:03;58.97;;;37.70;;
3249;SDS011;1637;42.020;23.992;2023-05-14T08:36:30;46.20;;;30.63;;
3249;SDS011;1637;42.020;23.992;2023-05-14T08:38:57;58.20;;;34.50;;
3249;SDS011;1637;42.020;23.992;2023-05-14T08:41:24;72.70;;;39.60;;
3249;SDS011;1637;42.020;23.992;2023-05-14T08:43:54;38.13;;;25.50;;
3249;SDS011;1637;42.020;23.992;2023-05-14T08:46:28;32.10;;;20.20;;
3249;SDS011;1637;42.020;23.992;2023-05-14T08:48:59;86.63;;;46.50;;
3249;SDS011;1637;42.020;23.992;2023-05-14T08:51:30;40.77;;;24.00;;
3249;SDS011;1637;42.020;23.992;2023-05-14T08:53:57;70.77;;;41.67;;
3249;SDS011;1637;42.020;23.992;2023-05-14T08:56:27;39.97;;;24.17;;
3249;SDS011;1637;42.020;23.992;2023-05-14T08:58:57;52.30;;;32.67;;
3249;SDS011;1637;42.020;23.992;2023-05-14T09:01:24;53.20;;;34.03;;
3249;SDS011;1637;42.020;23.992;2023-05-14T09:03:51;56.33;;;32.80;;
3249;SDS011;1637;42.020;23.992;2023-05-14T09:06:21;40.97;;;29.10;;
3249;SDS011;1637;42.020;23.992;2023-05-14T09:08:49;41.00;;;24.63;;
3249;SDS011;1637;42.020;23.992;2023-05-14T09:11:16;30.33;;;19.77;;
3249;SDS011;1637;42.020;23.992;2023-05-14T09:13:42;34.37;;;23.20;;
3249;SDS011;1637;42.020;23.992;2023-05-14T09:16:09;35.70;;;23.57;;
3249;SDS011;1637;42.020;23.992;2023-05-14T09:18:36;42.67;;;27.27;;
3249;SDS011;1637;42.020;23.992;2023-05-14T09:21:03;51.53;;;31.10;;
3249;SDS011;1637;42.020;23.992;2023-05-14T09:23:32;40.93;;;26.17;;
3249;SDS011;1637;42.020;23.992;2023-05-14T09:26:02;39.67;;;27.40;;
3249;SDS011;1637;42.020;23.992;2023-05-14T09:28:30;38.17;;;26.50;;
3249;SDS011;1637;42.020;23.992;2023-05-14T09:30:57;77.67;;;39.23;;
3249;SDS011;1637;42.020;23.992;2023-05-14T09:33:24;60.60;;;31.30;;
3249;SDS011;1637;42.020;23.992;2023-05-14T09:35:53;40.47;;;25.57;;
3249;SDS011;1637;42.020;23.992;2023-05-14T09:38:23;38.43;;;24.73;;
3249;SDS011;1637;42.020;23.992;2023-05-14T09:40:55;48.20;;;25.67;;
3249;SDS011;1637;42.020;23.992;2023-05-14T09:43:21;46.23;;;24.70;;
3249;SDS011;1637;42.020;23.992;2023-05-14T09:45:48;56.50;;;28.47;;
3249;SDS011;1637;42.020;23.992;2023-05-14T09:48:15;69.60;;;32.20;;
3249;SDS011;1637;42.020;23.992;2023-05-14T09:50:42;30.50;;;20.37;;
3249;SDS011;1637;42.020;23.992;2023-05-14T09:53:10;40.00;;;23.63;;
3249;SDS011;1637;42.020;23.992;2023-05-14T09:55:37;44.93;;;23.80;;
3249;SDS011;1637;42.020;23.992;2023-05-14T09:58:07;40.93;;;27.63;;
3249;SDS011;1637;42.020;23.992;2023-05-14T10:00:34;43.00;;;25.37;;
3249;SDS011;1637;42.020;23.992;2023-05-14T10:03:03;43.10;;;22.60;;
3249;SDS011;1637;42.020;23.992;2023-05-14T10:05:32;46.73;;;24.83;;
3249;SDS011;1637;42.020;23.992;2023-05-14T10:08:02;28.70;;;17.47;;
3249;SDS011;1637;42.020;23.992;2023-05-14T10:10:32;42.13;;;24.33;;
3249;SDS011;1637;42.020;23.992;2023-05-14T10:13:02;53.73;;;28.93;;
3249;SDS011;1637;42.020;23.992;2023-05-14T10:15:35;39.50;;;20.47;;
3249;SDS011;1637;42.020;23.992;2023-05-14T10:18:06;30.33;;;19.50;;
3249;SDS011;1637;42.020;23.992;2023-05-14T10:20:35;30.00;;;13.60;;
3249;SDS011;1637;42.020;23.992;2023-05-14T10:23:04;23.53;;;15.00;;
3249;SDS011;1637;42.020;23.992;2023-05-14T10:25:31;25.60;;;16.93;;
3249;SDS011;1637;42.020;23.992;2023-05-14T10:27:59;22.77;;;16.60;;
3249;SDS011;1637;42.020;23.992;2023-05-14T10:30:26;26.67;;;17.37;;
3249;SDS011;1637;42.020;23.992;2023-05-14T10:33:06;25.47;;;17.97;;
3249;SDS011;1637;42.020;23.992;2023-05-14T10:35:49;25.07;;;15.33;;
3249;SDS011;1637;42.020;23.992;2023-05-14T10:38:25;13.10;;;10.80;;
3249;SDS011;1637;42.020;23.992;2023-05-14T10:40:55;14.17;;;9.20;;
3249;SDS011;1637;42.020;23.992;2023-05-14T10:43:27;11.43;;;9.70;;
3249;SDS011;1637;42.020;23.992;2023-05-14T10:45:55;25.83;;;15.07;;
3249;SDS011;1637;42.020;23.992;2023-05-14T10:48:23;20.90;;;13.60;;
3249;SDS011;1637;42.020;23.992;2023-05-14T10:50:51;14.10;;;10.47;;
3249;SDS011;1637;42.020;23.992;2023-05-14T10:53:18;10.27;;;9.23;;
3249;SDS011;1637;42.020;23.992;2023-05-14T10:55:46;13.47;;;10.00;;
3249;SDS011;1637;42.020;23.992;2023-05-14T10:58:13;11.67;;;10.20;;
3249;SDS011;1637;42.020;23.992;2023-05-14T11:00:41;15.73;;;10.53;;
3249;SDS011;1637;42.020;23.992;2023-05-14T11:03:07;12.57;;;10.03;;
3249;SDS011;1637;42.020;23.992;2023-05-14T11:05:38;14.20;;;10.80;;
3249;SDS011;1637;42.020;23.992;2023-05-14T11:08:07;12.20;;;10.30;;
3249;SDS011;1637;42.020;23.992;2023-05-14T11:10:34;15.53;;;11.20;;
3249;SDS011;1637;42.020;23.992;2023-05-14T11:13:01;33.03;;;24.03;;
3249;SDS011;1637;42.020;23.992;2023-05-14T11:15:28;19.60;;;13.00;;
3249;SDS011;1637;42.020;23.992;2023-05-14T11:17:54;16.17;;;11.77;;
3249;SDS011;1637;42.020;23.992;2023-05-14T11:20:21;16.80;;;12.90;;
3249;SDS011;1637;42.020;23.992;2023-05-14T11:22:49;14.20;;;11.50;;
3249;SDS011;1637;42.020;23.992;2023-05-14T11:25:16;12.60;;;10.60;;
3249;SDS011;1637;42.020;23.992;2023-05-14T11:27:44;20.60;;;14.53;;
3249;SDS011;1637;42.020;23.992;2023-05-14T11:30:12;22.80;;;13.87;;
3249;SDS011;1637;42.020;23.992;2023-05-14T11:32:40;13.70;;;11.67;;
3249;SDS011;1637;42.020;23.992;2023-05-14T11:35:08;19.97;;;13.90;;
3249;SDS011;1637;42.020;23.992;2023-05-14T11:37:35;54.13;;;28.00;;
3249;SDS011;1637;42.020;23.992;2023-05-14T11:40:06;20.63;;;14.13;;
3249;SDS011;1637;42.020;23.992;2023-05-14T11:42:35;24.17;;;17.07;;
3249;SDS011;1637;42.020;23.992;2023-05-14T11:45:02;27.27;;;18.77;;
3249;SDS011;1637;42.020;23.992;2023-05-14T11:47:29;63.53;;;34.13;;
3249;SDS011;1637;42.020;23.992;2023-05-14T11:49:56;31.07;;;18.73;;
3249;SDS011;1637;42.020;23.992;2023-05-14T11:52:24;30.17;;;18.70;;
3249;SDS011;1637;42.020;23.992;2023-05-14T11:54:51;25.47;;;15.73;;
3249;SDS011;1637;42.020;23.992;2023-05-14T11:57:20;40.03;;;24.33;;
3249;SDS011;1637;42.020;23.992;2023-05-14T11:59:48;43.93;;;27.10;;
3249;SDS011;1637;42.020;23.992;2023-05-14T12:02:20;43.87;;;28.73;;
3249;SDS011;1637;42.020;23.992;2023-05-14T12:04:48;48.80;;;28.37;;
3249;SDS011;1637;42.020;23.992;2023-05-14T12:07:16;72.23;;;40.87;;
3249;SDS011;1637;42.020;23.992;2023-05-14T12:09:43;29.03;;;17.87;;
3249;SDS011;1637;42.020;23.992;2023-05-14T12:12:13;19.40;;;15.00;;
3249;SDS011;1637;42.020;23.992;2023-05-14T12:14:42;15.40;;;11.90;;
3249;SDS011;1637;42.020;23.992;2023-05-14T12:17:11;15.43;;;12.50;;
3249;SDS011;1637;42.020;23.992;2023-05-14T12:19:39;21.20;;;16.17;;
3249;SDS011;1637;42.020;23.992;2023-05-14T12:22:07;27.90;;;19.77;;
3249;SDS011;1637;42.020;23.992;2023-05-14T12:24:34;27.50;;;19.53;;
3249;SDS011;1637;42.020;23.992;2023-05-14T12:27:03;47.97;;;26.87;;
3249;SDS011;1637;42.020;23.992;2023-05-14T12:29:33;34.27;;;21.33;;
3249;SDS011;1637;42.020;23.992;2023-05-14T12:32:05;20.17;;;16.10;;
3249;SDS011;1637;42.020;23.992;2023-05-14T12:34:33;28.50;;;18.93;;
3249;SDS011;1637;42.020;23.992;2023-05-14T12:37:00;42.30;;;23.50;;
3249;SDS011;1637;42.020;23.992;2023-05-14T12:39:29;65.37;;;33.23;;
3249;SDS011;1637;42.020;23.992;2023-05-14T12:41:58;26.43;;;16.73;;
3249;SDS011;1637;42.020;23.992;2023-05-14T12:44:24;41.27;;;22.47;;
3249;SDS011;1637;42.020;23.992;2023-05-14T12:46:51;29.53;;;17.57;;
3249;SDS011;1637;42.020;23.992;2023-05-14T12:49:19;69.17;;;36.50;;
3249;SDS011;1637;42.020;23.992;2023-05-14T12:51:46;69.90;;;37.07;;
3249;SDS011;1637;42.020;23.992;2023-05-14T12:54:13;65.77;;;35.87;;
3249;SDS011;1637;42.020;23.992;2023-05-14T12:56:41;73.07;;;37.33;;
3249;SDS011;1637;42.020;23.992;2023-05-14T12:59:08;86.37;;;39.97;;
3249;SDS011;1637;42.020;23.992;2023-05-14T13:01:34;80.67;;;39.43;;
3249;SDS011;1637;42.020;23.992;2023-05-14T13:04:02;72.67;;;37.70;;
3249;SDS011;1637;42.020;23.992;2023-05-14T13:06:32;59.03;;;37.73;;
3249;SDS011;1637;42.020;23.992;2023-05-14T13:08:59;57.33;;;30.90;;
3249;SDS011;1637;42.020;23.992;2023-05-14T13:11:26;47.13;;;28.57;;
3249;SDS011;1637;42.020;23.992;2023-05-14T13:13:55;49.33;;;28.63;;
3249;SDS011;1637;42.020;23.992;2023-05-14T13:16:23;40.20;;;22.00;;
3249;SDS011;1637;42.020;23.992;2023-05-14T13:18:50;35.93;;;22.37;;
3249;SDS011;1637;42.020;23.992;2023-05-14T13:21:17;44.37;;;25.07;;
3249;SDS011;1637;42.020;23.992;2023-05-14T13:23:45;34.60;;;22.63;;
3249;SDS011;1637;42.020;23.992;2023-05-14T13:26:12;43.93;;;24.60;;
3249;SDS011;1637;42.020;23.992;2023-05-14T13:28:40;49.37;;;28.30;;
3249;SDS011;1637;42.020;23.992;2023-05-14T13:31:07;55.63;;;32.37;;
3249;SDS011;1637;42.020;23.992;2023-05-14T13:33:35;55.13;;;29.17;;
3249;SDS011;1637;42.020;23.992;2023-05-14T13:36:03;67.13;;;42.13;;
3249;SDS011;1637;42.020;23.992;2023-05-14T13:38:30;57.50;;;33.13;;
3249;SDS011;1637;42.020;23.992;2023-05-14T13:40:59;45.67;;;28.03;;
3249;SDS011;1637;42.020;23.992;2023-05-14T13:43:27;53.27;;;30.87;;
3249;SDS011;1637;42.020;23.992;2023-05-14T13:45:54;48.83;;;31.67;;
3249;SDS011;1637;42.020;23.992;2023-05-14T13:48:22;35.63;;;23.40;;
3249;SDS011;1637;42.020;23.992;2023-05-14T13:50:49;60.03;;;33.13;;
3249;SDS011;1637;42.020;23.992;2023-05-14T13:53:16;36.33;;;21.93;;
3249;SDS011;1637;42.020;23.992;2023-05-14T13:55:43;44.17;;;26.97;;
3249;SDS011;1637;42.020;23.992;2023-05-14T13:58:11;26.43;;;18.13;;
3249;SDS011;1637;42.020;23.992;2023-05-14T14:00:38;32.50;;;21.50;;
3249;SDS011;1637;42.020;23.992;2023-05-14T14:03:05;41.60;;;27.80;;
3249;SDS011;1637;42.020;23.992;2023-05-14T14:05:33;28.17;;;20.37;;
3249;SDS011;1637;42.020;23.992;2023-05-14T14:08:00;41.40;;;27.50;;
3249;SDS011;1637;42.020;23.992;2023-05-14T14:10:27;44.27;;;28.10;;
3249;SDS011;1637;42.020;23.992;2023-05-14T14:12:54;40.27;;;26.37;;
3249;SDS011;1637;42.020;23.992;2023-05-14T14:15:22;55.20;;;31.67;;
3249;SDS011;1637;42.020;23.992;2023-05-14T14:17:49;55.37;;;32.23;;
3249;SDS011;1637;42.020;23.992;2023-05-14T14:20:16;70.70;;;40.30;;
3249;SDS011;1637;42.020;23.992;2023-05-14T14:22:43;50.30;;;26.70;;
3249;SDS011;1637;42.020;23.992;2023-05-14T14:25:10;55.90;;;33.37;;
3249;SDS011;1637;42.020;23.992;2023-05-14T14:27:37;67.90;;;37.00;;
3249;SDS011;1637;42.020;23.992;2023-05-14T14:30:06;43.93;;;28.80;;
3249;SDS011;1637;42.020;23.992;2023-05-14T14:32:41;45.73;;;26.10;;
3249;SDS011;1637;42.020;23.992;2023-05-14T14:35:08;58.57;;;36.40;;
3249;SDS011;1637;42.020;23.992;2023-05-14T14:37:36;68.73;;;41.20;;
3249;SDS011;1637;42.020;23.992;2023-05-14T14:40:03;46.03;;;31.70;;